Terminal Aerodrome Forecast
Issued by NWS

Home | Current Version | Previous Version | Text Only | Print | Product List | Glossary On
Versions: 1 2 3 4 5 6 7 8 9 10 11 12 13 14 15
000
FTUS45 KRIW 301122
TAFCOD
TAF
KCOD 301122Z 3012/3112 24013G21KT P6SM VCSH BKN100
     FM301600 21010G17KT P6SM VCTS SCT080CB BKN120
     FM302300 27018G30KT P6SM FEW110
     FM310900 26008KT P6SM SKC
      AMD LTD TO CLD VIS AND WIND=

USA.gov is the U.S. government's official web portal to all federal, state and local government web resources and services.